createdAt,value
2023-02-15T00:00:35.057Z,0.23
2023-02-15T00:03:04.200Z,0.25
2023-02-15T00:05:33.350Z,0.31
2023-02-15T00:08:02.410Z,0.36
2023-02-15T00:10:31.384Z,0.37
2023-02-15T00:13:11.148Z,0.32
2023-02-15T00:15:40.051Z,0.30
2023-02-15T00:18:08.689Z,0.34
2023-02-15T00:20:37.781Z,0.34
2023-02-15T00:23:06.969Z,0.31
2023-02-15T00:25:35.817Z,0.35
2023-02-15T00:28:06.343Z,0.27
2023-02-15T00:30:39.221Z,0.28
2023-02-15T00:33:07.987Z,0.29
2023-02-15T00:35:37.049Z,0.31
2023-02-15T00:38:10.752Z,0.24
2023-02-15T00:40:40.056Z,0.23
2023-02-15T00:43:09.354Z,0.06
2023-02-15T00:45:42.534Z,0.16
2023-02-15T00:48:14.797Z,0.19
2023-02-15T00:50:55.032Z,0.20
2023-02-15T00:53:24.174Z,0.28
2023-02-15T00:55:55.791Z,0.36
2023-02-15T00:58:25.121Z,0.24
2023-02-15T01:00:56.197Z,0.24
2023-02-15T01:03:26.340Z,0.01
2023-02-15T01:05:55.149Z,0.00
2023-02-15T01:08:24.289Z,0.09
2023-02-15T01:10:53.420Z,0.17
2023-02-15T01:13:22.794Z,0.07
2023-02-15T01:15:57.437Z,0.18
2023-02-15T01:18:26.572Z,0.27
2023-02-15T01:20:56.424Z,0.25
2023-02-15T01:23:25.524Z,0.18
2023-02-15T01:25:56.874Z,0.18
2023-02-15T01:28:26.237Z,0.17
2023-02-15T01:30:56.990Z,0.15
2023-02-15T01:33:25.998Z,0.16
2023-02-15T01:35:59.613Z,0.10
2023-02-15T01:38:28.394Z,0.09
2023-02-15T01:41:19.086Z,0.09
2023-02-15T01:43:50.256Z,-0.04
2023-02-15T01:46:25.333Z,0.02
2023-02-15T01:48:57.104Z,0.05
2023-02-15T01:51:29.059Z,0.04
2023-02-15T01:54:02.821Z,-0.07
2023-02-15T01:56:56.686Z,-0.05
2023-02-15T01:59:25.952Z,-0.20
2023-02-15T02:01:58.323Z,-0.14
2023-02-15T02:04:32.271Z,0.02
2023-02-15T02:07:01.885Z,0.05
2023-02-15T02:09:31.798Z,0.05
2023-02-15T02:12:00.959Z,0.05
2023-02-15T02:14:30.192Z,0.09
2023-02-15T02:17:09.324Z,0.09
2023-02-15T02:20:23.348Z,-0.09
2023-02-15T02:23:15.097Z,-0.29
2023-02-15T02:26:20.040Z,-0.18
2023-02-15T02:29:15.337Z,-0.29
2023-02-15T02:31:58.136Z,-0.30
2023-02-15T02:34:31.876Z,-0.21
2023-02-15T02:37:04.803Z,-0.36
2023-02-15T02:39:39.512Z,-0.36
2023-02-15T02:42:12.986Z,-0.36
2023-02-15T02:44:45.558Z,-0.30
2023-02-15T02:47:18.756Z,-0.20
2023-02-15T02:49:49.600Z,-0.15
2023-02-15T02:52:40.174Z,-0.10
2023-02-15T02:55:15.526Z,-0.15
2023-02-15T02:57:50.617Z,-0.19
2023-02-15T03:00:20.184Z,-0.12
2023-02-15T03:02:50.258Z,-0.18
2023-02-15T03:05:23.979Z,-0.21
2023-02-15T03:07:54.240Z,-0.21
2023-02-15T03:10:25.147Z,-0.23
2023-02-15T03:12:54.574Z,-0.26
2023-02-15T03:15:27.141Z,-0.18
2023-02-15T03:17:59.491Z,-0.15
2023-02-15T03:20:32.424Z,-0.16
2023-02-15T03:23:05.592Z,-0.19
2023-02-15T03:25:36.385Z,-0.17
2023-02-15T03:28:07.726Z,-0.16
2023-02-15T03:30:37.997Z,-0.17
2023-02-15T03:33:08.341Z,-0.15
2023-02-15T03:35:42.962Z,-0.29
2023-02-15T03:38:13.557Z,-0.31
2023-02-15T03:41:18.603Z,-0.21
2023-02-15T03:43:51.597Z,-0.20
2023-02-15T03:46:23.839Z,-0.14
2023-02-15T03:48:56.050Z,-0.10
2023-02-15T03:51:39.396Z,-0.09
2023-02-15T03:54:10.963Z,-0.22
2023-02-15T03:56:41.296Z,-0.24
2023-02-15T03:59:28.090Z,-0.16
2023-02-15T04:02:03.963Z,-0.22
2023-02-15T04:04:37.014Z,-0.26
2023-02-15T04:07:09.537Z,-0.24
2023-02-15T04:09:55.847Z,-0.19
2023-02-15T04:12:24.805Z,-0.22
2023-02-15T04:15:10.900Z,-0.27
2023-02-15T04:17:40.408Z,-0.17
2023-02-15T04:20:28.557Z,-0.13
2023-02-15T04:23:17.075Z,-0.13
2023-02-15T04:25:45.963Z,-0.11
2023-02-15T04:28:17.135Z,-0.14
2023-02-15T04:30:46.230Z,-0.13
2023-02-15T04:33:15.120Z,-0.07
2023-02-15T04:35:46.138Z,-0.10
2023-02-15T04:38:16.695Z,-0.09
2023-02-15T04:40:45.787Z,-0.07
2023-02-15T04:43:15.707Z,-0.09
2023-02-15T04:45:44.566Z,-0.05
2023-02-15T04:48:13.732Z,-0.07
2023-02-15T04:50:42.959Z,-0.10
2023-02-15T04:53:11.679Z,-0.05
2023-02-15T04:55:42.218Z,-0.16
2023-02-15T05:03:15.744Z,-0.42
2023-02-15T05:05:45.315Z,-0.58
2023-02-15T05:08:14.297Z,-0.48
2023-02-15T05:10:44.827Z,-0.40
2023-02-15T05:13:13.568Z,-0.29
2023-02-15T05:15:44.836Z,-0.28
2023-02-15T05:18:14.279Z,-0.31
2023-02-15T05:20:43.876Z,-0.29
2023-02-15T05:23:13.232Z,-0.45
2023-02-15T05:26:00.650Z,-0.52
2023-02-15T05:28:31.398Z,-0.48
2023-02-15T05:31:07.610Z,-0.43
2023-02-15T05:33:43.080Z,-0.43
2023-02-15T05:36:13.613Z,-0.53
2023-02-15T05:38:42.733Z,-0.47
2023-02-15T05:41:12.666Z,-0.35
2023-02-15T05:43:43.966Z,-0.28
2023-02-15T05:46:14.486Z,-0.36
2023-02-15T05:48:43.786Z,-0.30
2023-02-15T05:51:20.100Z,-0.61
2023-02-15T05:53:48.894Z,-0.85
2023-02-15T05:56:17.754Z,-0.79
2023-02-15T05:58:50.671Z,-0.65
2023-02-15T06:01:23.090Z,-0.52
2023-02-15T06:03:52.193Z,-0.45
2023-02-15T06:06:31.441Z,-0.45
2023-02-15T06:09:01.158Z,-0.46
2023-02-15T06:11:32.699Z,-0.47
2023-02-15T06:14:03.058Z,-0.32
2023-02-15T06:16:32.444Z,-0.31
2023-02-15T06:19:02.706Z,-0.28
2023-02-15T06:21:32.182Z,-0.32
2023-02-15T06:24:01.649Z,-0.51
2023-02-15T06:26:33.149Z,-0.50
2023-02-15T06:29:03.575Z,-0.62
2023-02-15T06:31:36.054Z,-0.74
2023-02-15T06:34:05.214Z,-0.84
2023-02-15T06:36:34.609Z,-1.00
2023-02-15T06:39:04.367Z,-1.06
2023-02-15T06:41:33.770Z,-0.86
2023-02-15T06:44:04.504Z,-0.85
2023-02-15T06:46:33.796Z,-0.79
2023-02-15T06:49:05.367Z,-0.95
2023-02-15T06:51:35.961Z,-1.02
2023-02-15T06:54:05.198Z,-1.11
2023-02-15T06:56:34.597Z,-0.92
2023-02-15T06:59:05.087Z,-0.74
2023-02-15T07:01:39.007Z,-0.68
2023-02-15T07:04:08.232Z,-0.74
2023-02-15T07:06:37.225Z,-0.61
2023-02-15T07:09:06.636Z,-0.69
2023-02-15T07:11:56.100Z,-0.83
2023-02-15T07:14:28.917Z,-0.90
2023-02-15T07:16:57.855Z,-0.87
2023-02-15T07:19:27.048Z,-0.87
2023-02-15T07:21:56.190Z,-0.83
2023-02-15T07:24:25.069Z,-0.89
2023-02-15T07:26:53.888Z,-0.85
2023-02-15T07:29:22.605Z,-0.84
2023-02-15T07:31:53.155Z,-0.79
2023-02-15T07:34:22.034Z,-0.75
2023-02-15T07:36:54.803Z,-0.67
2023-02-15T07:39:23.735Z,-0.65
2023-02-15T07:42:19.008Z,-0.84
2023-02-15T07:44:49.167Z,-0.83
2023-02-15T07:47:20.007Z,-0.93
2023-02-15T07:49:50.466Z,-0.97
2023-02-15T07:52:18.989Z,-0.90
2023-02-15T07:54:47.882Z,-0.98
2023-02-15T07:57:16.779Z,-1.06
2023-02-15T07:59:45.710Z,-1.10
2023-02-15T08:02:16.961Z,-0.97
2023-02-15T08:04:48.694Z,-0.90
2023-02-15T08:07:17.454Z,-0.87
2023-02-15T08:09:47.767Z,-0.71
2023-02-15T08:12:16.692Z,-0.67
2023-02-15T08:14:45.141Z,-0.60
2023-02-15T08:17:13.844Z,-0.69
2023-02-15T08:19:42.481Z,-0.67
2023-02-15T08:22:16.251Z,-0.86
2023-02-15T08:24:44.946Z,-0.93
2023-02-15T08:27:29.879Z,-0.94
2023-02-15T08:29:59.795Z,-0.75
2023-02-15T08:32:28.599Z,-0.77
2023-02-15T08:34:57.285Z,-0.62
2023-02-15T08:37:27.648Z,-0.74
2023-02-15T08:39:56.301Z,-0.62
2023-02-15T08:42:25.157Z,-0.62
2023-02-15T08:44:53.875Z,-0.70
2023-02-15T08:47:22.554Z,-0.83
2023-02-15T08:49:52.185Z,-0.72
2023-02-15T08:52:21.298Z,-0.62
2023-02-15T08:55:16.771Z,-0.75
2023-02-15T08:57:46.712Z,-0.68
2023-02-15T09:00:16.354Z,-0.67
2023-02-15T09:02:45.015Z,-0.48
2023-02-15T09:05:13.768Z,-0.36
2023-02-15T09:07:42.717Z,-0.47
2023-02-15T09:10:11.992Z,-0.56
2023-02-15T09:12:42.099Z,-0.46
2023-02-15T09:15:10.981Z,-0.52
2023-02-15T09:17:39.564Z,-0.62
2023-02-15T09:20:09.287Z,-0.54
2023-02-15T09:22:37.902Z,-0.65
2023-02-15T09:25:07.376Z,-0.59
2023-02-15T09:27:37.644Z,-0.54
2023-02-15T09:30:09.685Z,-0.48
2023-02-15T09:32:38.452Z,-0.42
2023-02-15T09:35:07.790Z,-0.27
2023-02-15T09:37:36.392Z,-0.15
2023-02-15T09:40:06.512Z,-0.16
2023-02-15T09:42:55.574Z,-0.09
2023-02-15T09:45:31.416Z,0.03
2023-02-15T09:48:24.836Z,0.05
2023-02-15T09:51:02.009Z,0.09
2023-02-15T09:53:45.321Z,0.08
2023-02-15T09:56:21.001Z,0.16
2023-02-15T09:58:55.514Z,0.15
2023-02-15T10:01:31.777Z,0.22
2023-02-15T10:04:13.805Z,-0.01
2023-02-15T10:06:47.448Z,0.07
2023-02-15T10:09:30.855Z,0.00
2023-02-15T10:12:17.688Z,-0.07
2023-02-15T10:14:59.173Z,-0.25
2023-02-15T10:17:38.049Z,-0.04
2023-02-15T10:20:20.009Z,0.20
2023-02-15T10:23:05.150Z,0.30
2023-02-15T10:25:42.305Z,0.26
2023-02-15T10:28:16.734Z,0.36
2023-02-15T10:30:49.338Z,0.35
2023-02-15T10:33:37.534Z,0.39
2023-02-15T10:36:14.505Z,0.42
2023-02-15T10:38:46.013Z,0.42
2023-02-15T10:41:29.533Z,0.27
2023-02-15T10:44:12.352Z,0.30
2023-02-15T10:46:58.396Z,0.40
2023-02-15T10:49:42.450Z,0.49
2023-02-15T10:52:20.175Z,0.60
2023-02-15T10:54:53.549Z,0.30
2023-02-15T10:57:25.895Z,0.17
2023-02-15T11:00:10.557Z,-0.22
2023-02-15T11:02:52.605Z,-0.33
2023-02-15T11:05:38.761Z,-0.44
2023-02-15T11:08:10.988Z,-0.31
2023-02-15T11:10:41.969Z,-0.19
2023-02-15T11:13:12.591Z,-0.11
2023-02-15T11:15:44.561Z,0.22
2023-02-15T11:18:16.130Z,0.30
2023-02-15T11:20:50.271Z,0.45
2023-02-15T11:23:19.695Z,0.63
2023-02-15T11:25:49.746Z,0.67
2023-02-15T11:28:22.772Z,0.71
2023-02-15T11:30:53.876Z,0.77
2023-02-15T11:33:27.438Z,0.73
2023-02-15T11:36:00.833Z,0.57
2023-02-15T11:38:32.014Z,0.45
2023-02-15T11:41:03.661Z,0.45
2023-02-15T11:43:37.006Z,0.63
2023-02-15T11:46:05.674Z,0.47
2023-02-15T11:48:34.912Z,0.54
2023-02-15T11:51:05.979Z,0.10
2023-02-15T11:53:36.281Z,0.05
2023-02-15T11:56:07.279Z,0.19
2023-02-15T11:58:40.193Z,0.30
2023-02-15T12:01:14.072Z,0.54
2023-02-15T12:03:47.566Z,0.68
2023-02-15T12:06:22.853Z,0.91
2023-02-15T12:08:56.820Z,1.06
2023-02-15T12:11:31.467Z,1.14
2023-02-15T12:14:01.812Z,1.19
2023-02-15T12:16:31.946Z,1.35
2023-02-15T12:19:02.621Z,1.36
2023-02-15T12:21:34.064Z,1.35
2023-02-15T12:24:06.564Z,1.35
2023-02-15T12:26:37.291Z,1.47
2023-02-15T12:29:14.267Z,1.62
2023-02-15T12:31:45.616Z,1.58
2023-02-15T12:34:20.099Z,1.66
2023-02-15T12:36:51.837Z,1.79
2023-02-15T12:39:23.224Z,1.77
2023-02-15T12:42:04.918Z,1.80
2023-02-15T12:44:34.674Z,1.74
2023-02-15T12:47:05.233Z,1.85
2023-02-15T12:49:35.618Z,1.97
2023-02-15T12:52:08.974Z,2.01
2023-02-15T12:54:41.193Z,2.09
2023-02-15T12:57:27.902Z,1.96
2023-02-15T12:59:59.273Z,1.86
2023-02-15T13:02:30.378Z,2.12
2023-02-15T13:05:00.294Z,2.18
2023-02-15T13:07:33.891Z,2.16
2023-02-15T13:10:02.640Z,2.22
2023-02-15T13:12:33.065Z,2.30
2023-02-15T13:15:03.478Z,2.42
2023-02-15T13:17:34.958Z,2.38
2023-02-15T13:20:08.650Z,2.40
2023-02-15T13:22:43.327Z,2.45
2023-02-15T13:25:19.763Z,2.45
2023-02-15T13:27:49.920Z,2.36
2023-02-15T13:30:27.250Z,2.31
2023-02-15T13:33:22.679Z,2.39
2023-02-15T13:36:00.126Z,2.37
2023-02-15T13:38:51.561Z,2.53
2023-02-15T13:41:23.538Z,2.47
2023-02-15T13:43:57.080Z,2.37
2023-02-15T13:46:44.010Z,2.33
2023-02-15T13:49:20.931Z,2.47
2023-02-15T13:51:55.293Z,2.58
2023-02-15T13:54:34.129Z,2.70
2023-02-15T13:57:17.636Z,2.52
2023-02-15T13:59:57.242Z,2.42
2023-02-15T14:02:45.324Z,2.54
2023-02-15T14:05:27.080Z,2.61
2023-02-15T14:08:00.553Z,2.65
2023-02-15T14:10:43.313Z,2.59
2023-02-15T14:13:35.470Z,2.62
2023-02-15T14:16:06.104Z,2.71
2023-02-15T14:18:38.454Z,2.81
2023-02-15T14:21:15.021Z,2.71
2023-02-15T14:23:50.118Z,2.70
2023-02-15T14:26:24.313Z,2.57
2023-02-15T14:28:58.445Z,2.51
2023-02-15T14:31:31.961Z,2.60
2023-02-15T14:34:00.425Z,2.66
2023-02-15T14:36:31.308Z,2.64
2023-02-15T14:39:29.287Z,2.63
2023-02-15T14:42:01.138Z,2.62
2023-02-15T14:44:34.392Z,2.69
2023-02-15T14:47:07.254Z,2.65
2023-02-15T14:49:38.473Z,2.74
2023-02-15T14:52:09.718Z,2.73
2023-02-15T14:54:57.602Z,2.79
2023-02-15T14:57:35.373Z,2.82
2023-02-15T15:00:40.257Z,2.85
2023-02-15T15:03:24.388Z,2.90
2023-02-15T15:05:54.497Z,2.77
2023-02-15T15:08:28.924Z,2.81
2023-02-15T15:10:57.681Z,2.78
2023-02-15T15:13:57.414Z,2.81
2023-02-15T15:16:33.814Z,2.62
2023-02-15T15:19:04.304Z,2.67
2023-02-15T15:21:55.100Z,2.70
2023-02-15T15:24:49.544Z,2.55
2023-02-15T15:27:44.370Z,2.56
2023-02-15T15:31:01.898Z,2.60
2023-02-15T15:34:21.459Z,2.69
2023-02-15T15:37:12.448Z,2.69
2023-02-15T15:40:24.182Z,2.68
2023-02-15T15:42:58.760Z,2.65
2023-02-15T15:45:56.647Z,2.51
2023-02-15T15:48:34.390Z,2.54
2023-02-15T15:51:08.169Z,2.53
2023-02-15T15:53:43.364Z,2.46
2023-02-15T15:56:16.335Z,2.31
2023-02-15T15:58:47.153Z,2.46
2023-02-15T16:01:15.954Z,2.54
2023-02-15T16:03:55.078Z,2.08
2023-02-15T16:06:39.015Z,2.10
2023-02-15T16:09:18.744Z,2.22
2023-02-15T16:11:49.797Z,2.29
2023-02-15T16:14:21.888Z,2.33
2023-02-15T16:16:56.638Z,2.32
2023-02-15T16:19:29.235Z,2.40
2023-02-15T16:22:00.563Z,2.41
2023-02-15T16:24:40.628Z,2.40
2023-02-15T16:27:20.442Z,2.39
2023-02-15T16:29:48.813Z,2.33
2023-02-15T16:32:20.060Z,2.28
2023-02-15T16:34:56.172Z,2.20
2023-02-15T16:37:28.449Z,2.29
2023-02-15T16:39:57.593Z,2.27
2023-02-15T16:42:26.664Z,2.32
2023-02-15T16:44:58.104Z,2.28
2023-02-15T16:47:28.438Z,2.20
2023-02-15T16:49:58.895Z,2.30
2023-02-15T16:52:30.228Z,2.28
2023-02-15T16:55:00.521Z,2.15
2023-02-15T16:57:31.996Z,2.07
2023-02-15T17:00:05.969Z,2.09
2023-02-15T17:02:56.133Z,2.03
2023-02-15T17:05:25.619Z,2.09
2023-02-15T17:08:08.836Z,2.04
2023-02-15T17:10:38.582Z,2.05
2023-02-15T17:13:12.432Z,2.04
2023-02-15T17:15:42.949Z,2.02
2023-02-15T17:18:15.221Z,2.01
2023-02-15T17:20:44.851Z,2.04
2023-02-15T17:23:25.115Z,1.89
2023-02-15T17:25:54.007Z,1.87
2023-02-15T17:28:24.785Z,1.80
2023-02-15T17:31:04.282Z,1.85
2023-02-15T17:33:40.520Z,1.94
2023-02-15T17:36:22.965Z,1.97
2023-02-15T17:39:21.464Z,2.02
2023-02-15T17:41:53.941Z,2.03
2023-02-15T17:44:22.425Z,2.06
2023-02-15T17:46:50.885Z,2.01
2023-02-15T17:49:25.293Z,2.03
2023-02-15T17:51:53.752Z,2.03
2023-02-15T17:54:41.392Z,1.91
2023-02-15T17:57:13.959Z,1.86
2023-02-15T17:59:59.841Z,1.80
2023-02-15T18:02:47.838Z,1.75
2023-02-15T18:05:34.499Z,1.79
2023-02-15T18:08:21.999Z,1.69
2023-02-15T18:11:09.546Z,1.50
2023-02-15T18:13:38.306Z,1.30
2023-02-15T18:16:15.435Z,1.07
2023-02-15T18:18:45.858Z,1.06
2023-02-15T18:21:15.200Z,1.26
2023-02-15T18:23:44.740Z,1.39
2023-02-15T18:26:20.702Z,1.44
2023-02-15T18:28:50.063Z,1.52
2023-02-15T18:31:19.926Z,1.62
2023-02-15T18:33:50.279Z,1.51
2023-02-15T18:36:23.957Z,1.43
2023-02-15T18:38:54.382Z,1.35
2023-02-15T18:41:25.235Z,1.47
2023-02-15T18:43:55.663Z,1.48
2023-02-15T18:46:25.178Z,1.56
2023-02-15T18:48:53.809Z,1.61
2023-02-15T18:51:23.764Z,1.64
2023-02-15T18:53:54.123Z,1.61
2023-02-15T18:56:24.964Z,1.62
2023-02-15T18:58:54.005Z,1.55
2023-02-15T19:01:22.870Z,1.63
2023-02-15T19:03:53.384Z,1.55
2023-02-15T19:06:25.171Z,1.57
2023-02-15T19:08:54.243Z,1.65
2023-02-15T19:11:28.438Z,1.50
2023-02-15T19:13:57.660Z,1.44
2023-02-15T19:16:30.400Z,1.19
2023-02-15T19:18:59.496Z,1.39
2023-02-15T19:21:29.762Z,1.45
2023-02-15T19:24:00.880Z,1.29
2023-02-15T19:26:44.371Z,1.18
2023-02-15T19:29:15.415Z,1.10
2023-02-15T19:31:44.409Z,0.91
2023-02-15T19:34:17.481Z,0.77
2023-02-15T19:36:49.411Z,0.76
2023-02-15T19:39:25.216Z,0.86
2023-02-15T19:41:55.388Z,0.77
2023-02-15T19:44:23.890Z,0.89
2023-02-15T19:46:52.625Z,0.93
2023-02-15T19:49:21.315Z,1.03
2023-02-15T19:51:49.725Z,1.17
2023-02-15T19:54:28.539Z,1.11
2023-02-15T19:56:59.107Z,1.04
2023-02-15T19:59:29.939Z,1.05
2023-02-15T20:01:58.669Z,1.11
2023-02-15T20:04:27.832Z,1.00
2023-02-15T20:06:57.936Z,1.07
2023-02-15T20:09:28.156Z,0.96
2023-02-15T20:11:59.007Z,0.95
2023-02-15T20:14:27.754Z,0.97
2023-02-15T20:16:57.098Z,1.12
2023-02-15T20:19:26.047Z,1.12
2023-02-15T20:21:55.097Z,1.19
2023-02-15T20:24:24.383Z,1.17
2023-02-15T20:26:52.851Z,1.10
2023-02-15T20:29:22.685Z,1.14
2023-02-15T20:31:55.583Z,0.89
2023-02-15T20:34:24.134Z,0.70
2023-02-15T20:36:52.759Z,0.44
2023-02-15T20:39:21.180Z,0.45
2023-02-15T20:41:49.952Z,0.48
2023-02-15T20:44:25.376Z,0.52
2023-02-15T20:46:56.028Z,0.63
2023-02-15T20:49:25.358Z,0.78
2023-02-15T20:52:19.305Z,0.80
2023-02-15T20:54:48.249Z,0.91
2023-02-15T20:57:16.895Z,0.79
2023-02-15T20:59:46.527Z,0.89
2023-02-15T21:02:20.300Z,0.80
2023-02-15T21:04:49.005Z,0.79
2023-02-15T21:07:18.210Z,0.69
2023-02-15T21:09:46.645Z,0.74
2023-02-15T21:12:15.684Z,0.42
2023-02-15T21:14:46.662Z,0.40
2023-02-15T21:17:17.360Z,0.50
2023-02-15T21:19:46.332Z,0.67
2023-02-15T21:22:15.813Z,0.63
2023-02-15T21:24:48.125Z,0.41
2023-02-15T21:27:16.827Z,0.41
2023-02-15T21:29:46.904Z,0.43
2023-02-15T21:32:15.493Z,0.17
2023-02-15T21:34:44.053Z,0.26
2023-02-15T21:37:28.847Z,0.27
2023-02-15T21:39:57.996Z,0.36
2023-02-15T21:42:44.315Z,0.33
2023-02-15T21:45:35.789Z,0.21
2023-02-15T21:48:05.799Z,0.12
2023-02-15T21:53:48.787Z,0.16
2023-02-15T21:56:18.921Z,0.34
2023-02-15T21:58:48.372Z,0.29
2023-02-15T22:01:23.853Z,0.07
2023-02-15T22:04:23.663Z,0.30
2023-02-15T22:06:52.043Z,0.30
2023-02-15T22:09:22.176Z,0.30
2023-02-15T22:11:52.095Z,0.30
2023-02-15T22:14:49.848Z,0.26
2023-02-15T22:17:21.648Z,0.27
2023-02-15T22:19:50.993Z,0.35
2023-02-15T22:22:20.971Z,0.45
2023-02-15T22:24:49.912Z,0.49
2023-02-15T22:27:20.484Z,0.54
2023-02-15T22:29:49.579Z,0.60
2023-02-15T22:32:24.757Z,0.56
2023-02-15T22:34:54.917Z,0.52
2023-02-15T22:37:23.627Z,0.54
2023-02-15T22:39:52.323Z,0.60
2023-02-15T22:42:25.957Z,0.63
2023-02-15T22:44:55.768Z,0.57
2023-02-15T22:47:29.072Z,0.33
2023-02-15T22:49:57.682Z,0.22
2023-02-15T22:52:26.996Z,0.19
2023-02-15T22:54:55.513Z,0.21
2023-02-15T22:57:28.463Z,0.28
2023-02-15T22:59:57.154Z,0.34
2023-02-15T23:02:27.062Z,0.36
2023-02-15T23:04:55.806Z,0.36
2023-02-15T23:07:25.051Z,0.40
2023-02-15T23:09:54.268Z,0.38
2023-02-15T23:12:28.540Z,0.30
2023-02-15T23:14:58.040Z,0.27
2023-02-15T23:17:28.425Z,0.26
2023-02-15T23:19:57.428Z,0.24
2023-02-15T23:22:26.058Z,0.24
2023-02-15T23:24:54.949Z,0.36
2023-02-15T23:27:40.857Z,0.30
2023-02-15T23:30:14.709Z,0.33
2023-02-15T23:32:44.874Z,0.38
2023-02-15T23:35:15.510Z,0.39
2023-02-15T23:37:47.257Z,0.34
2023-02-15T23:40:33.690Z,0.31
2023-02-15T23:43:02.284Z,0.36
2023-02-15T23:45:31.116Z,0.31
2023-02-15T23:48:18.996Z,0.09
2023-02-15T23:50:48.065Z,-0.05
2023-02-15T23:53:16.957Z,0.04
2023-02-15T23:55:46.090Z,0.09
2023-02-15T23:58:18.173Z,0.17
